createdAt,value
2018-07-05T07:38:15.603Z,95.10
2018-07-05T07:43:13.040Z,94.40
2018-07-05T07:48:11.793Z,93.60
2018-07-05T07:58:10.525Z,92.80
2018-07-05T08:03:09.270Z,92.60
2018-07-05T08:08:08.118Z,92.70
2018-07-05T08:13:07.818Z,92.50
2018-07-05T08:18:00.592Z,92.00
2018-07-05T08:22:54.389Z,91.60
2018-07-05T08:27:50.713Z,91.70
2018-07-05T08:32:49.037Z,91.10
2018-07-05T08:37:47.410Z,92.20
2018-07-05T08:47:42.367Z,91.70
2018-07-05T08:52:41.072Z,91.80
2018-07-05T08:57:39.516Z,91.40
2018-07-05T09:02:38.088Z,91.40
2018-07-05T09:07:36.284Z,91.10
2018-07-05T09:12:34.885Z,91.40
2018-07-05T09:17:32.184Z,91.20
2018-07-05T09:22:30.521Z,92.10
2018-07-05T09:27:28.201Z,92.40
2018-07-05T09:32:25.732Z,92.80
2018-07-05T09:37:23.239Z,93.20
2018-07-05T09:42:21.637Z,92.60
2018-07-05T09:47:20.987Z,92.50
2018-07-05T09:52:18.596Z,92.00
2018-07-05T09:57:17.928Z,92.50
2018-07-05T10:02:15.232Z,92.00
2018-07-05T10:07:12.392Z,92.50
2018-07-05T10:12:09.886Z,92.90
2018-07-05T10:17:07.431Z,93.10
2018-07-05T10:22:05.284Z,92.80
2018-07-05T10:27:02.714Z,92.60
2018-07-05T10:32:16.074Z,91.80
2018-07-05T10:37:19.961Z,91.50
2018-07-05T10:42:33.257Z,92.90
2018-07-05T10:47:48.497Z,93.70
2018-07-05T12:45:44.192Z,93.00
2018-07-05T12:50:58.448Z,92.80
2018-07-05T12:56:11.898Z,92.90
2018-07-05T13:01:25.192Z,92.60
2018-07-05T13:06:39.165Z,92.00
2018-07-05T13:11:53.223Z,91.60
2018-07-05T13:17:07.638Z,91.60
2018-07-05T13:22:19.777Z,90.60
2018-07-05T13:27:33.871Z,90.00
2018-07-05T13:32:46.534Z,89.50
2018-07-05T13:38:01.515Z,86.70
2018-07-05T13:43:14.981Z,85.70
2018-07-05T13:48:29.050Z,87.40
2018-07-05T13:53:43.349Z,89.50
2018-07-05T14:04:04.276Z,88.00
2018-07-05T14:09:18.697Z,86.70
2018-07-05T14:14:32.009Z,88.10
2018-07-05T14:19:50.758Z,87.40
2018-07-05T14:25:05.168Z,88.00
2018-07-05T14:30:18.465Z,88.20
2018-07-05T14:35:32.533Z,88.80
2018-07-05T14:40:46.702Z,87.30
2018-07-05T14:45:59.792Z,87.30
2018-07-05T14:51:13.059Z,87.00
2018-07-05T14:56:26.214Z,89.80
2018-07-05T15:01:39.487Z,88.50
2018-07-05T15:06:52.943Z,88.60
2018-07-05T15:12:06.549Z,90.30
2018-07-05T15:17:24.827Z,89.60
2018-07-05T15:22:38.571Z,87.90
2018-07-05T15:27:53.002Z,89.10
2018-07-05T15:33:07.210Z,89.10
2018-07-05T15:38:20.533Z,88.80
2018-07-05T15:43:33.919Z,88.10
2018-07-05T15:48:48.396Z,88.40
2018-07-05T15:54:01.685Z,88.20
2018-07-05T15:59:16.035Z,89.40
2018-07-05T16:04:28.961Z,90.00
2018-07-05T16:09:43.300Z,89.20
2018-07-05T16:14:57.359Z,89.30
2018-07-05T16:20:11.453Z,90.00
2018-07-05T16:25:25.764Z,90.30
2018-07-05T16:30:40.096Z,90.30
2018-07-05T16:35:58.112Z,90.70
2018-07-05T16:41:12.310Z,90.60
2018-07-05T16:46:26.448Z,90.30
2018-07-05T16:51:39.745Z,90.00
2018-07-05T16:56:54.428Z,88.50
2018-07-05T17:02:07.664Z,88.30
2018-07-05T17:07:21.767Z,87.70
2018-07-05T17:12:36.067Z,88.40
2018-07-05T17:17:50.094Z,88.60
2018-07-05T17:23:04.216Z,88.40
2018-07-05T17:28:18.536Z,88.70
2018-07-05T17:33:32.827Z,90.20
2018-07-05T17:38:46.940Z,90.30
2018-07-05T17:44:01.210Z,90.10
2018-07-05T17:49:15.288Z,90.20
2018-07-05T17:54:29.582Z,90.30
2018-07-05T17:59:45.753Z,90.60
2018-07-05T18:04:59.120Z,90.80
2018-07-05T18:10:13.196Z,91.10
2018-07-05T18:15:27.713Z,91.60
2018-07-05T18:20:43.964Z,92.30
2018-07-05T18:25:57.201Z,92.60
2018-07-05T18:31:10.695Z,93.10
2018-07-05T18:36:25.085Z,93.80
2018-07-05T18:46:47.807Z,94.10
2018-07-05T18:52:01.315Z,94.20
2018-07-05T18:57:18.328Z,94.30
2018-07-05T19:02:32.413Z,94.30
2018-07-05T19:07:46.518Z,94.50
2018-07-05T19:13:00.114Z,94.80
2018-07-05T19:18:14.436Z,95.60
2018-07-05T19:23:29.424Z,96.60
2018-07-05T19:28:43.555Z,98.20
2018-07-05T19:33:57.628Z,98.80
2018-07-05T19:39:11.917Z,99.90
2018-07-05T19:44:26.972Z,99.00
2018-07-05T19:49:41.120Z,98.40
2018-07-05T19:54:57.598Z,99.30
2018-07-05T20:00:11.974Z,99.80
2018-07-05T20:05:26.291Z,99.90
2018-07-05T20:10:40.325Z,99.90
2018-07-05T20:15:53.553Z,99.90
2018-07-05T20:21:07.747Z,99.90
2018-07-05T20:26:21.943Z,99.90
2018-07-05T20:31:35.064Z,99.90
2018-07-05T20:36:49.119Z,99.90
2018-07-05T20:42:03.298Z,99.90
2018-07-05T20:47:20.461Z,99.90
2018-07-05T20:52:33.561Z,99.90
2018-07-05T20:57:47.779Z,99.90
2018-07-05T21:03:01.843Z,99.90
2018-07-05T21:08:16.054Z,99.90
2018-07-05T21:13:30.443Z,99.90
2018-07-05T21:18:44.604Z,99.90
2018-07-05T21:23:58.625Z,99.90
2018-07-05T21:29:11.694Z,99.90
2018-07-05T21:34:24.954Z,99.90
2018-07-05T21:39:38.342Z,99.90
2018-07-05T21:44:51.539Z,99.90
2018-07-05T21:50:05.692Z,99.90
2018-07-05T21:55:20.007Z,99.90
2018-07-05T22:00:34.108Z,99.90
2018-07-05T22:05:48.317Z,99.90
2018-07-05T22:11:02.878Z,99.90
2018-07-05T22:16:16.269Z,99.90
2018-07-05T22:21:29.662Z,99.90
2018-07-05T22:31:57.339Z,99.90
2018-07-05T22:37:10.372Z,99.90
2018-07-05T22:42:24.637Z,99.90
2018-07-05T22:47:37.800Z,99.90
2018-07-05T22:52:51.968Z,99.90
2018-07-05T22:58:06.128Z,99.90
2018-07-05T23:03:19.345Z,99.90
2018-07-05T23:08:32.633Z,99.90
2018-07-05T23:13:46.759Z,99.90
2018-07-05T23:18:59.991Z,99.90
2018-07-05T23:24:12.153Z,99.90
2018-07-05T23:29:25.390Z,99.90
2018-07-05T23:34:39.416Z,99.90
2018-07-05T23:39:53.487Z,99.90
2018-07-05T23:45:07.664Z,99.90
2018-07-05T23:50:21.542Z,99.90
2018-07-05T23:55:37.169Z,99.90
